Time;durP1;ratioP1;P1;durP2;ratioP2;P2;SDS_P1;SDS_P2;PMS_P1;PMS_P2;Temp;Humidity;BMP_temperature;BMP_pressure;BME280_temperature;BME280_humidity;BME280_pressure;Samples;Min_cycle;Max_cycle;Signal;HPM_P1;HPM_P2
2022/01/15 00:02:22;;;;;;;24.45;11.95;;;;;;;6.11;100.00;103255.47;4907655;28;20038;-74
2022/01/15 00:04:48;;;;;;;26.77;11.75;;;;;;;6.07;100.00;103239.75;4909289;28;20072;-74
2022/01/15 00:07:14;;;;;;;27.98;12.10;;;;;;;6.04;100.00;103229.31;4926196;28;20312;-74
2022/01/15 00:09:41;;;;;;;25.88;12.13;;;;;;;6.06;100.00;103238.06;4940323;28;20731;-74
2022/01/15 00:12:07;;;;;;;24.40;11.48;;;;;;;6.07;100.00;103239.75;4910213;28;20062;-74
2022/01/15 00:14:38;;;;;;;22.05;11.45;;;;;;;6.13;100.00;103247.28;4926596;28;20117;-74
2022/01/15 00:17:06;;;;;;;24.10;11.80;;;;;;;6.12;100.00;103242.94;4911140;28;20049;-74
2022/01/15 00:19:41;;;;;;;26.50;12.52;;;;;;;6.09;100.00;103221.75;4926603;28;20042;-74
2022/01/15 00:22:18;;;;;;;30.27;12.93;;;;;;;6.15;100.00;103214.09;4921430;28;20037;-74
2022/01/15 00:24:44;;;;;;;31.08;13.40;;;;;;;6.11;100.00;103220.69;4917121;28;20050;-74
2022/01/15 00:27:10;;;;;;;30.77;11.95;;;;;;;6.14;100.00;103224.91;4923790;28;20031;-74
2022/01/15 00:29:36;;;;;;;27.35;12.23;;;;;;;6.11;100.00;103226.03;4909538;28;20046;-74
2022/01/15 00:32:04;;;;;;;27.80;13.93;;;;;;;6.14;100.00;103224.91;4924869;28;20035;-74
2022/01/15 00:34:30;;;;;;;33.38;13.32;;;;;;;6.11;100.00;103222.50;4901858;28;20027;-73
2022/01/15 00:36:55;;;;;;;33.33;14.88;;;;;;;6.06;100.00;103206.81;4916227;28;20058;-73
2022/01/15 00:39:21;;;;;;;35.35;15.27;;;;;;;6.12;100.00;103224.19;4923283;28;20051;-74
2022/01/15 00:41:46;;;;;;;31.17;14.30;;;;;;;6.05;100.00;103213.13;4909439;28;22374;-73
2022/01/15 00:44:12;;;;;;;32.67;12.98;;;;;;;6.03;100.00;103206.19;4922954;28;20755;-73
2022/01/15 00:46:37;;;;;;;31.90;12.88;;;;;;;6.05;100.00;103212.28;4918779;28;20045;-73
2022/01/15 00:49:03;;;;;;;29.15;12.90;;;;;;;6.04;100.00;103213.25;4916222;28;20050;-73
2022/01/15 00:51:28;;;;;;;28.65;12.05;;;;;;;6.03;100.00;103211.56;4925062;28;20941;-73
2022/01/15 00:53:54;;;;;;;26.85;12.35;;;;;;;6.00;100.00;103206.44;4908731;28;20059;-74
2022/01/15 00:56:19;;;;;;;26.95;11.95;;;;;;;5.95;100.00;103196.97;4924163;28;20038;-73
2022/01/15 00:58:45;;;;;;;23.27;11.48;;;;;;;6.00;100.00;103195.75;4915678;28;20048;-73
2022/01/15 01:01:10;;;;;;;27.02;12.32;;;;;;;6.03;100.00;103193.66;4913879;28;20253;-73
2022/01/15 01:03:36;;;;;;;22.50;11.35;;;;;;;6.08;100.00;103193.31;4921216;28;20089;-73
2022/01/15 01:06:01;;;;;;;26.30;11.82;;;;;;;6.06;100.00;103195.25;4905470;28;20047;-74
2022/01/15 01:08:27;;;;;;;28.35;11.65;;;;;;;6.01;100.00;103189.44;4922538;28;20566;-71
2022/01/15 01:11:00;;;;;;;21.20;11.07;;;;;;;6.00;100.00;103185.03;4918327;28;20498;-73
2022/01/15 01:24:13;;;;;;;20.08;9.48;;;;;;;5.95;100.00;103188.09;4911639;28;20054;-73
2022/01/15 01:26:47;;;;;;;21.50;9.52;;;;;;;5.90;100.00;103191.13;4924289;28;20035;-73
2022/01/15 01:29:53;;;;;;;17.73;9.40;;;;;;;5.92;100.00;103201.69;4909582;28;20542;-73
2022/01/15 01:34:34;;;;;;;22.20;9.30;;;;;;;5.92;100.00;103181.16;4917947;28;20451;-73
2022/01/15 01:37:07;;;;;;;19.10;9.60;;;;;;;5.95;100.00;103180.09;4915973;28;20605;-73
2022/01/15 01:40:00;;;;;;;14.68;8.38;;;;;;;6.06;100.00;103190.75;4924867;28;20047;-73
2022/01/15 01:45:13;;;;;;;15.65;8.40;;;;;;;6.02;100.00;103183.09;4922465;28;20034;-73
2022/01/15 01:47:42;;;;;;;18.83;9.63;;;;;;;6.02;100.00;103180.44;4919793;28;20034;-73
2022/01/15 01:50:12;;;;;;;16.35;8.52;;;;;;;5.97;100.00;103176.31;4926184;28;20026;-73
2022/01/15 01:52:37;;;;;;;17.92;8.27;;;;;;;5.91;100.00;103181.28;4916008;28;20568;-72
2022/01/15 01:55:04;;;;;;;14.07;8.25;;;;;;;6.02;100.00;103172.41;4929233;28;20050;-72
2022/01/15 01:57:30;;;;;;;15.63;8.80;;;;;;;5.98;100.00;103161.09;4922132;28;20057;-73
2022/01/15 01:59:55;;;;;;;18.52;10.18;;;;;;;5.97;100.00;103164.75;4907715;28;20046;-73
2022/01/15 02:02:21;;;;;;;19.08;10.55;;;;;;;5.90;100.00;103164.38;4923577;28;20045;-72
2022/01/15 02:04:46;;;;;;;18.67;9.20;;;;;;;5.81;100.00;103169.63;4917214;28;21020;-73
2022/01/15 02:07:12;;;;;;;20.50;8.98;;;;;;;5.80;100.00;103168.78;4912034;28;20593;-73
2022/01/15 02:09:38;;;;;;;19.70;9.55;;;;;;;5.88;100.00;103157.44;4922869;28;20042;-73
2022/01/15 02:12:04;;;;;;;18.30;8.57;;;;;;;5.91;100.00;103166.06;4907526;28;20055;-72
2022/01/15 02:14:30;;;;;;;17.08;9.43;;;;;;;5.92;100.00;103159.78;4924622;28;22683;-72
2022/01/15 02:16:57;;;;;;;16.58;8.52;;;;;;;5.87;100.00;103163.78;4916236;28;20026;-72
2022/01/15 02:19:31;;;;;;;13.98;7.47;;;;;;;5.88;100.00;103160.13;4918897;28;20118;-73
2022/01/15 02:24:41;;;;;;;13.40;5.75;;;;;;;5.84;100.00;103148.81;4913126;28;20051;-73
2022/01/15 02:27:06;;;;;;;13.80;5.82;;;;;;;5.79;100.00;103151.03;4925027;28;20369;-73
2022/01/15 02:29:32;;;;;;;12.38;6.32;;;;;;;5.75;100.00;103160.25;4928911;28;20059;-73
2022/01/15 02:31:57;;;;;;;13.50;6.82;;;;;;;5.72;100.00;103149.81;4927836;28;20030;-73
2022/01/15 02:34:23;;;;;;;13.38;7.03;;;;;;;5.70;100.00;103135.72;4909932;28;20545;-73
2022/01/15 02:36:48;;;;;;;15.60;8.27;;;;;;;5.65;100.00;103116.53;4911710;28;20054;-73
2022/01/15 02:39:13;;;;;;;16.77;8.75;;;;;;;5.67;100.00;103117.25;4924934;28;20663;-73
2022/01/15 02:41:39;;;;;;;15.60;8.23;;;;;;;5.66;100.00;103123.59;4892691;28;20086;-73
2022/01/15 02:44:14;;;;;;;12.63;7.53;;;;;;;5.70;100.00;103125.03;4927072;28;20027;-72
2022/01/15 02:49:14;;;;;;;11.48;6.78;;;;;;;5.63;100.00;103105.97;4917659;28;20057;-73
2022/01/15 02:51:40;;;;;;;12.10;6.57;;;;;;;5.72;100.00;103107.03;4930834;28;22073;-73
2022/01/15 02:54:06;;;;;;;12.00;7.65;;;;;;;5.70;100.00;103106.31;4912663;28;20145;-73
2022/01/15 02:56:37;;;;;;;13.43;7.07;;;;;;;5.68;100.00;103110.94;4925794;28;20034;-73
2022/01/15 02:59:18;;;;;;;12.05;7.10;;;;;;;5.65;100.00;103109.38;4920967;28;20161;-74
2022/01/15 03:01:44;;;;;;;12.23;7.20;;;;;;;5.63;100.00;103107.78;4917342;28;24127;-73
2022/01/15 03:04:09;;;;;;;15.23;7.85;;;;;;;5.68;100.00;103111.78;4923009;28;20232;-73
2022/01/15 03:06:35;;;;;;;12.93;7.15;;;;;;;5.70;100.00;103100.97;4910120;28;20093;-73
2022/01/15 03:09:00;;;;;;;13.77;7.60;;;;;;;-145.76;100.00;65039.31;4925435;28;20062;-73
2022/01/15 03:11:28;;;;;;;17.02;9.35;;;;;;;-145.76;100.00;65039.31;4919812;28;20023;-72
2022/01/15 03:13:53;;;;;;;15.23;8.05;;;;;;;-145.76;100.00;65039.31;4914656;28;20054;-73
2022/01/15 03:16:20;;;;;;;16.75;8.95;;;;;;;-145.76;100.00;65039.31;4926690;28;20166;-73
2022/01/15 03:18:46;;;;;;;19.50;9.77;;;;;;;-145.76;100.00;65039.31;4907535;28;20190;-73
2022/01/15 03:21:12;;;;;;;21.88;10.90;;;;;;;-145.76;100.00;65039.31;4927879;28;20042;-73
2022/01/15 03:23:38;;;;;;;18.70;10.20;;;;;;;-145.76;100.00;65039.31;4919116;28;20122;-73
2022/01/15 03:26:05;;;;;;;26.67;11.75;;;;;;;-145.76;100.00;65039.31;4915232;28;20142;-73
2022/01/15 03:28:31;;;;;;;25.17;12.27;;;;;;;-145.76;100.00;65039.31;4924124;28;20031;-73
2022/01/15 03:30:57;;;;;;;28.45;11.88;;;;;;;-145.76;100.00;65039.31;4907148;28;20137;-73
2022/01/15 03:33:22;;;;;;;26.25;12.30;;;;;;;-145.76;100.00;65039.31;4923862;28;20026;-73
2022/01/15 03:35:48;;;;;;;28.92;12.85;;;;;;;-145.76;100.00;65039.31;4919105;28;20082;-74
2022/01/15 03:38:13;;;;;;;29.70;12.68;;;;;;;-145.76;100.00;65039.31;4915958;28;20188;-73
2022/01/15 03:40:39;;;;;;;32.50;11.80;;;;;;;-145.76;100.00;65039.31;4922158;28;20163;-73
2022/01/15 03:43:05;;;;;;;26.00;10.50;;;;;;;-145.76;100.00;65039.31;4912273;28;20066;-72
2022/01/15 03:45:31;;;;;;;27.52;10.82;;;;;;;-145.76;100.00;65039.31;4926523;28;20150;-73
2022/01/15 03:47:57;;;;;;;24.35;9.93;;;;;;;-145.76;100.00;65039.31;4911124;28;20051;-73
2022/01/15 03:50:24;;;;;;;27.35;10.02;;;;;;;-145.76;100.00;65039.31;4925833;28;20078;-73
2022/01/15 03:52:49;;;;;;;15.25;4.95;;;;;;;-145.76;100.00;65039.31;4928515;28;20031;-73
2022/01/15 03:55:15;;;;;;;14.10;4.95;;;;;;;-145.76;100.00;65039.31;4910571;28;20882;-73
2022/01/15 03:57:41;;;;;;;8.60;4.32;;;;;;;-145.76;100.00;65039.31;4909068;28;20066;-73
2022/01/15 04:00:18;;;;;;;8.18;4.07;;;;;;;-145.76;100.00;65039.31;4909803;28;20081;-73
2022/01/15 04:02:45;;;;;;;9.43;4.80;;;;;;;-145.76;100.00;65039.31;4927314;28;20039;-73
2022/01/15 04:05:11;;;;;;;17.80;6.07;;;;;;;-145.76;100.00;65039.31;4925433;28;20062;-73
2022/01/15 04:07:37;;;;;;;15.65;5.55;;;;;;;-145.76;100.00;65039.31;4879420;28;20065;-73
2022/01/15 04:10:07;;;;;;;17.70;5.93;;;;;;;-145.76;100.00;65039.31;4925521;28;20031;-72
2022/01/15 04:12:33;;;;;;;15.70;6.50;;;;;;;-145.76;100.00;65039.31;4910185;28;20054;-72
2022/01/15 04:14:58;;;;;;;17.17;6.82;;;;;;;-145.76;100.00;65039.31;4926012;28;20046;-73
2022/01/15 04:17:25;;;;;;;21.55;8.35;;;;;;;-145.76;100.00;65039.31;4903296;28;20777;-73
2022/01/15 04:19:50;;;;;;;19.23;8.05;;;;;;;-145.76;100.00;65039.31;4913771;28;20047;-73
2022/01/15 04:22:16;;;;;;;20.60;7.32;;;;;;;-145.76;100.00;65039.31;4906664;28;22470;-72
2022/01/15 04:24:41;;;;;;;26.30;9.02;;;;;;;-145.76;100.00;65039.31;4910116;28;20148;-73
2022/01/15 04:27:07;;;;;;;21.15;8.25;;;;;;;-145.76;100.00;65039.31;4909570;28;20348;-72
2022/01/15 04:29:33;;;;;;;11.90;5.72;;;;;;;-145.76;100.00;65039.31;4920467;28;20135;-73
2022/01/15 04:32:00;;;;;;;13.45;5.72;;;;;;;-145.76;100.00;65039.31;4917591;28;20051;-73
2022/01/15 04:34:27;;;;;;;12.40;4.85;;;;;;;-145.76;100.00;65039.31;4927306;28;21139;-73
2022/01/15 04:36:59;;;;;;;11.55;5.03;;;;;;;-145.76;100.00;65039.31;4925291;28;20054;-73
2022/01/15 04:39:25;;;;;;;11.73;5.75;;;;;;;-145.76;100.00;65039.31;4924405;28;20537;-73
2022/01/15 04:41:50;;;;;;;11.13;4.93;;;;;;;-145.76;100.00;65039.31;4919312;28;20054;-73
2022/01/15 04:44:16;;;;;;;11.45;5.50;;;;;;;-145.76;100.00;65039.31;4898823;28;20420;-72
2022/01/15 04:46:41;;;;;;;12.07;4.82;;;;;;;-145.76;100.00;65039.31;4924900;28;20073;-73
2022/01/15 04:49:07;;;;;;;11.80;5.35;;;;;;;-145.76;100.00;65039.31;4908619;28;20078;-73
2022/01/15 04:51:33;;;;;;;11.75;5.28;;;;;;;-145.76;100.00;65039.31;4907503;28;20062;-74
2022/01/15 04:53:58;;;;;;;14.68;6.30;;;;;;;-145.76;100.00;65039.31;4920457;28;20043;-74
2022/01/15 04:56:24;;;;;;;12.95;6.28;;;;;;;-145.76;100.00;65039.31;4915623;28;20061;-75
2022/01/15 04:58:50;;;;;;;15.13;6.82;;;;;;;-145.76;100.00;65039.31;4925274;28;20043;-74
2022/01/15 05:01:16;;;;;;;14.43;6.45;;;;;;;-145.76;100.00;65039.31;4909418;28;20598;-75
2022/01/15 05:03:41;;;;;;;14.48;6.25;;;;;;;-145.76;100.00;65039.31;4924188;28;23484;-74
2022/01/15 05:06:06;;;;;;;16.65;7.00;;;;;;;-145.76;100.00;65039.31;4902684;28;20050;-74
2022/01/15 05:08:32;;;;;;;21.58;8.68;;;;;;;-145.76;100.00;65039.31;4913738;28;20173;-72
2022/01/15 05:11:00;;;;;;;18.92;8.05;;;;;;;-145.76;100.00;65039.31;4906269;28;20034;-75
2022/01/15 05:13:29;;;;;;;24.75;9.40;;;;;;;-145.76;100.00;65039.31;4909996;28;20066;-74
2022/01/15 05:15:55;;;;;;;22.00;9.02;;;;;;;-145.76;100.00;65039.31;4924447;28;20030;-74
2022/01/15 05:18:20;;;;;;;27.20;9.43;;;;;;;-145.76;100.00;65039.31;4908816;28;20054;-74
2022/01/15 05:20:46;;;;;;;25.75;9.57;;;;;;;-145.76;100.00;65039.31;4922686;28;20035;-74
2022/01/15 05:23:12;;;;;;;37.58;9.70;;;;;;;-145.76;100.00;65039.31;4922266;28;20038;-74
2022/01/15 05:25:38;;;;;;;35.00;10.98;;;;;;;-145.76;100.00;65039.31;4910050;28;20058;-74
2022/01/15 05:28:04;;;;;;;23.92;9.88;;;;;;;-145.76;100.00;65039.31;4924084;28;20027;-74
2022/01/15 05:30:31;;;;;;;17.83;6.53;;;;;;;-145.76;100.00;65039.31;4908934;28;20046;-74
2022/01/15 05:32:57;;;;;;;15.45;6.82;;;;;;;-145.76;100.00;65039.31;4907599;28;20031;-72
2022/01/15 05:35:26;;;;;;;15.95;6.60;;;;;;;-145.76;100.00;65039.31;4905922;28;20146;-72
2022/01/15 05:37:58;;;;;;;17.17;5.93;;;;;;;-145.76;100.00;65039.31;4908592;28;20058;-72
2022/01/15 05:40:25;;;;;;;19.20;7.05;;;;;;;-145.76;100.00;65039.31;4922866;28;20731;-73
2022/01/15 05:42:52;;;;;;;15.63;7.28;;;;;;;-145.76;100.00;65039.31;4908232;28;20043;-72
2022/01/15 05:45:17;;;;;;;17.13;7.40;;;;;;;-145.76;100.00;65039.31;4923055;28;20486;-72
2022/01/15 05:47:43;;;;;;;17.65;7.07;;;;;;;-145.76;100.00;65039.31;4903051;28;20042;-72
2022/01/15 05:50:09;;;;;;;18.92;7.05;;;;;;;-145.76;100.00;65039.31;4894733;28;20047;-72
2022/01/15 05:52:34;;;;;;;18.63;6.85;;;;;;;-145.76;100.00;65039.31;4922892;28;20906;-72
2022/01/15 05:55:00;;;;;;;22.98;7.50;;;;;;;-145.76;100.00;65039.31;4903351;28;20043;-72
2022/01/15 05:57:25;;;;;;;24.70;7.97;;;;;;;-145.76;100.00;65039.31;4905277;28;20082;-72
2022/01/15 05:59:51;;;;;;;20.65;7.68;;;;;;;-145.76;100.00;65039.31;4920391;28;20047;-75
2022/01/15 06:02:18;;;;;;;37.78;11.93;;;;;;;-145.76;100.00;65039.31;4913477;28;20078;-72
2022/01/15 06:04:44;;;;;;;34.30;11.77;;;;;;;-145.76;100.00;65039.31;4922989;28;20925;-72
2022/01/15 06:07:09;;;;;;;39.80;14.13;;;;;;;-145.76;100.00;65039.31;4905234;28;20488;-72
2022/01/15 06:09:34;;;;;;;33.60;12.98;;;;;;;-145.76;100.00;65039.31;4940149;28;20043;-73
2022/01/15 06:12:01;;;;;;;40.75;14.52;;;;;;;-145.76;100.00;65039.31;4919484;28;21192;-72
2022/01/15 06:14:27;;;;;;;37.95;15.02;;;;;;;-145.76;100.00;65039.31;4912534;28;20051;-73
2022/01/15 06:16:52;;;;;;;39.60;15.27;;;;;;;-145.76;100.00;65039.31;4922170;28;20066;-74
2022/01/15 06:19:18;;;;;;;39.67;14.43;;;;;;;-145.76;100.00;65039.31;4887816;28;20065;-73
2022/01/15 06:21:43;;;;;;;41.45;13.40;;;;;;;-145.76;100.00;65039.31;4922004;28;20035;-74
2022/01/15 06:24:09;;;;;;;34.85;14.13;;;;;;;-145.76;100.00;65039.31;4902653;28;20204;-75
2022/01/15 06:26:34;;;;;;;36.13;14.48;;;;;;;-145.76;100.00;65039.31;4918003;28;20043;-74
2022/01/15 06:29:00;;;;;;;36.33;13.82;;;;;;;-145.76;100.00;65039.31;4924268;28;20085;-74
2022/01/15 06:31:28;;;;;;;36.08;13.85;;;;;;;-145.76;100.00;65039.31;4909442;28;20051;-72
2022/01/15 06:33:53;;;;;;;36.72;13.38;;;;;;;-145.76;100.00;65039.31;4922718;28;20035;-72
2022/01/15 06:36:19;;;;;;;34.95;13.82;;;;;;;-145.76;100.00;65039.31;4916928;28;20073;-72
2022/01/15 06:38:44;;;;;;;38.63;14.60;;;;;;;-145.76;100.00;65039.31;4928165;28;20042;-74
2022/01/15 06:41:09;;;;;;;32.65;13.05;;;;;;;-145.76;100.00;65039.31;4921891;28;20039;-73
2022/01/15 06:43:35;;;;;;;36.25;12.98;;;;;;;-145.76;100.00;65039.31;4905992;28;20050;-74
2022/01/15 06:46:00;;;;;;;29.25;12.63;;;;;;;-145.76;100.00;65039.31;4923740;28;20177;-74
2022/01/15 06:48:29;;;;;;;29.15;12.35;;;;;;;-145.76;100.00;65039.31;4918289;28;20055;-74
2022/01/15 06:50:55;;;;;;;30.73;12.27;;;;;;;-145.76;100.00;65039.31;4914589;28;20159;-74
2022/01/15 06:53:20;;;;;;;28.80;11.98;;;;;;;-145.76;100.00;65039.31;4925097;28;20029;-74
2022/01/15 06:55:49;;;;;;;32.72;11.13;;;;;;;-145.76;100.00;65039.31;4907121;28;22528;-73
2022/01/15 06:58:15;;;;;;;22.75;10.55;;;;;;;-145.76;100.00;65039.31;4923252;28;20055;-74
2022/01/15 07:00:41;;;;;;;24.08;9.55;;;;;;;-145.76;100.00;65039.31;4917289;28;20530;-73
2022/01/15 07:03:06;;;;;;;21.02;9.50;;;;;;;-145.76;100.00;65039.31;4912230;28;20141;-74
2022/01/15 07:05:32;;;;;;;23.55;9.80;;;;;;;-145.76;100.00;65039.31;4927394;28;20045;-74
2022/01/15 07:07:57;;;;;;;18.85;9.30;;;;;;;-145.76;100.00;65039.31;4912039;28;20051;-75
2022/01/15 07:10:23;;;;;;;19.55;9.15;;;;;;;-145.76;100.00;65039.31;4925773;28;20031;-74
2022/01/15 07:12:48;;;;;;;19.00;8.52;;;;;;;-145.76;100.00;65039.31;4919178;28;20565;-74
2022/01/15 07:15:13;;;;;;;15.23;8.30;;;;;;;-145.76;100.00;65039.31;4920124;28;20659;-75
2022/01/15 07:17:44;;;;;;;29.42;9.50;;;;;;;-145.76;100.00;65039.31;4927939;28;20090;-74
2022/01/15 07:20:10;;;;;;;18.50;8.88;;;;;;;-145.76;100.00;65039.31;4909810;28;20062;-75
2022/01/15 07:22:36;;;;;;;16.85;7.32;;;;;;;-145.76;100.00;65039.31;4927446;28;20045;-75
2022/01/15 07:25:02;;;;;;;14.35;7.90;;;;;;;-145.76;100.00;65039.31;4877222;28;20047;-75
2022/01/15 07:27:27;;;;;;;14.68;7.28;;;;;;;-145.76;100.00;65039.31;4926543;28;20031;-74
2022/01/15 07:29:53;;;;;;;17.85;7.57;;;;;;;-145.76;100.00;65039.31;4927936;28;20109;-74
2022/01/15 07:32:18;;;;;;;17.00;7.85;;;;;;;-145.76;100.00;65039.31;4911975;28;20043;-74
2022/01/15 07:34:44;;;;;;;13.45;6.72;;;;;;;-145.76;100.00;65039.31;4926297;28;20133;-74
2022/01/15 07:37:09;;;;;;;15.90;8.40;;;;;;;-145.76;100.00;65039.31;4911581;28;20042;-74
2022/01/15 07:39:35;;;;;;;48.53;26.27;;;;;;;-145.76;100.00;65039.31;4926815;28;21053;-74
2022/01/15 07:42:01;;;;;;;59.67;28.83;;;;;;;-145.76;100.00;65039.31;4925565;28;20046;-74
2022/01/15 07:44:27;;;;;;;86.28;39.22;;;;;;;-145.76;100.00;65039.31;4910561;28;20043;-73
2022/01/15 07:46:54;;;;;;;87.03;41.35;;;;;;;-145.76;100.00;65039.31;4926272;28;20041;-73
2022/01/15 07:49:20;;;;;;;105.75;50.13;;;;;;;-145.76;100.00;65039.31;4893927;28;20530;-73
2022/01/15 07:51:45;;;;;;;41.03;19.95;;;;;;;-145.76;100.00;65039.31;4925909;28;20046;-73
2022/01/15 07:54:11;;;;;;;29.42;17.73;;;;;;;-145.76;100.00;65039.31;4920960;28;20121;-72
2022/01/15 07:56:36;;;;;;;22.02;15.05;;;;;;;-145.76;100.00;65039.31;4910726;28;20050;-72
2022/01/15 07:59:02;;;;;;;10.05;6.38;;;;;;;-145.76;100.00;65039.31;4923345;28;20134;-72
2022/01/15 08:01:28;;;;;;;8.30;5.25;;;;;;;-145.76;100.00;65039.31;4905656;28;20059;-72
2022/01/15 08:03:53;;;;;;;9.00;5.80;;;;;;;-145.76;100.00;65039.31;4923068;28;20039;-72
2022/01/15 08:06:19;;;;;;;7.80;3.70;;;;;;;-145.76;100.00;65039.31;4901250;28;20058;-72
2022/01/15 08:08:44;;;;;;;7.47;4.47;;;;;;;-145.76;100.00;65039.31;4912204;28;20050;-72
2022/01/15 08:11:10;;;;;;;6.68;4.05;;;;;;;-145.76;100.00;65039.31;4939145;28;20798;-73
2022/01/15 08:13:35;;;;;;;6.95;3.97;;;;;;;-145.76;100.00;65039.31;4906223;28;20050;-73
2022/01/15 08:16:04;;;;;;;5.95;3.88;;;;;;;-145.76;100.00;65039.31;4920576;28;20031;-73
2022/01/15 08:18:33;;;;;;;6.88;4.30;;;;;;;-145.76;100.00;65039.31;4889506;28;20038;-73
2022/01/15 08:20:58;;;;;;;7.35;4.03;;;;;;;-145.76;100.00;65039.31;4911479;28;22125;-73
2022/01/15 08:23:24;;;;;;;7.53;3.88;;;;;;;-145.76;100.00;65039.31;4922285;28;20035;-73
2022/01/15 08:25:50;;;;;;;8.38;3.83;;;;;;;-145.76;100.00;65039.31;4903620;28;20526;-73
2022/01/15 08:28:17;;;;;;;7.85;4.95;;;;;;;-145.76;100.00;65039.31;4904249;28;20038;-74
2022/01/15 08:30:43;;;;;;;6.88;4.20;;;;;;;-145.76;100.00;65039.31;4929744;28;20027;-74
2022/01/15 08:33:09;;;;;;;9.27;4.28;;;;;;;-145.76;100.00;65039.31;4913667;28;20145;-74
2022/01/15 08:35:34;;;;;;;6.47;3.58;;;;;;;-145.76;100.00;65039.31;4919420;28;20173;-74
2022/01/15 08:38:02;;;;;;;8.77;4.38;;;;;;;-145.76;100.00;65039.31;4908939;28;20062;-74
2022/01/15 08:40:28;;;;;;;9.93;4.57;;;;;;;-145.76;100.00;65039.31;4922069;28;20046;-74
2022/01/15 08:42:54;;;;;;;8.55;4.47;;;;;;;-145.76;100.00;65039.31;4919480;28;20130;-74
2022/01/15 08:45:20;;;;;;;6.70;4.20;;;;;;;-145.76;100.00;65039.31;4917398;28;20050;-75
2022/01/15 08:47:45;;;;;;;8.23;4.97;;;;;;;-145.76;100.00;65039.31;4925097;28;20534;-74
2022/01/15 08:50:13;;;;;;;7.57;4.20;;;;;;;-145.76;100.00;65039.31;4907603;28;20054;-73
2022/01/15 08:52:39;;;;;;;8.35;5.10;;;;;;;-145.76;100.00;65039.31;4926614;28;20034;-73
2022/01/15 08:55:05;;;;;;;8.90;4.95;;;;;;;-145.76;100.00;65039.31;4919100;28;20225;-72
2022/01/15 08:57:30;;;;;;;8.50;5.18;;;;;;;-145.76;100.00;65039.31;4914453;28;20506;-74
2022/01/15 08:59:56;;;;;;;11.20;5.47;;;;;;;-145.76;100.00;65039.31;4925019;28;20057;-74
2022/01/15 09:02:21;;;;;;;10.10;5.85;;;;;;;-145.76;100.00;65039.31;4907200;28;20055;-74
2022/01/15 09:04:47;;;;;;;9.57;4.53;;;;;;;-145.76;100.00;65039.31;4906223;28;20039;-73
2022/01/15 09:07:13;;;;;;;7.25;4.38;;;;;;;-145.76;100.00;65039.31;4918015;28;20035;-73
2022/01/15 09:09:39;;;;;;;8.57;5.05;;;;;;;-145.76;100.00;65039.31;4917689;28;20051;-74
2022/01/15 09:12:04;;;;;;;8.63;4.43;;;;;;;-145.76;100.00;65039.31;4925022;28;20182;-73
2022/01/15 09:14:30;;;;;;;7.75;4.60;;;;;;;-145.76;100.00;65039.31;4930158;28;20054;-73
2022/01/15 09:16:56;;;;;;;9.20;4.45;;;;;;;-145.76;100.00;65039.31;4939686;28;20118;-72
2022/01/15 09:19:21;;;;;;;8.35;4.80;;;;;;;-145.76;100.00;65039.31;4930954;28;21831;-73
2022/01/15 09:21:47;;;;;;;6.75;4.45;;;;;;;-145.76;100.00;65039.31;4914620;28;20062;-72
2022/01/15 09:24:12;;;;;;;6.40;3.33;;;;;;;-145.76;100.00;65039.31;4926062;28;20030;-73
2022/01/15 09:32:07;;;;;;;7.95;4.95;;;;;;;-145.76;100.00;65039.31;4909976;28;20051;-77
2022/01/15 09:34:34;;;;;;;10.95;7.07;;;;;;;-145.76;100.00;65039.31;4907178;28;20039;-76
2022/01/15 09:37:03;;;;;;;8.50;4.97;;;;;;;-145.76;100.00;65039.31;4917457;28;20034;-76
2022/01/15 09:39:29;;;;;;;6.72;4.18;;;;;;;-145.76;100.00;65039.31;4915642;28;20050;-76
2022/01/15 09:41:55;;;;;;;9.55;5.72;;;;;;;-145.76;100.00;65039.31;4925259;28;20492;-76
2022/01/15 09:44:23;;;;;;;9.55;5.93;;;;;;;-145.76;100.00;65039.31;4908916;28;20047;-75
2022/01/15 09:46:50;;;;;;;9.27;5.63;;;;;;;-145.76;100.00;65039.31;4925051;28;20034;-75
2022/01/15 09:49:17;;;;;;;11.73;7.20;;;;;;;-145.76;100.00;65039.31;4918559;28;25354;-74
2022/01/15 09:51:44;;;;;;;17.73;9.77;;;;;;;-145.76;100.00;65039.31;4927036;28;20047;-74
2022/01/15 09:54:13;;;;;;;14.13;8.60;;;;;;;-145.76;100.00;65039.31;4906769;28;20509;-74
2022/01/15 09:56:38;;;;;;;14.10;9.15;;;;;;;-145.76;100.00;65039.31;4908121;28;20066;-75
2022/01/15 09:59:04;;;;;;;20.55;12.55;;;;;;;-145.76;100.00;65039.31;4923143;28;20059;-75
2022/01/15 10:01:30;;;;;;;23.00;13.13;;;;;;;-145.76;100.00;65039.31;4917532;28;20055;-75
2022/01/15 10:03:57;;;;;;;22.05;13.38;;;;;;;-145.76;100.00;65039.31;4915173;28;20082;-74
2022/01/15 10:06:22;;;;;;;23.02;13.85;;;;;;;-145.76;100.00;65039.31;4923093;28;20068;-75
2022/01/15 10:09:02;;;;;;;24.90;14.00;;;;;;;-145.76;100.00;65039.31;4908139;28;20062;-75
2022/01/15 10:11:45;;;;;;;24.80;13.02;;;;;;;-145.76;100.00;65039.31;4909821;28;20047;-75
2022/01/15 10:14:25;;;;;;;27.77;14.37;;;;;;;-145.76;100.00;65039.31;4907615;28;20051;-75
2022/01/15 10:16:50;;;;;;;25.20;14.25;;;;;;;-145.76;100.00;65039.31;4924466;28;20105;-75
2022/01/15 10:19:33;;;;;;;23.77;13.07;;;;;;;-145.76;100.00;65039.31;4921002;28;20558;-74
2022/01/15 10:22:13;;;;;;;25.58;13.70;;;;;;;-145.76;100.00;65039.31;4915704;28;20154;-75
2022/01/15 10:24:40;;;;;;;21.30;13.23;;;;;;;-145.76;100.00;65039.31;4924603;28;20027;-75
2022/01/15 10:27:17;;;;;;;22.73;13.63;;;;;;;-145.76;100.00;65039.31;4891710;28;20058;-76
2022/01/15 10:29:50;;;;;;;21.38;13.18;;;;;;;-145.76;100.00;65039.31;4923516;28;20061;-76
2022/01/15 10:32:15;;;;;;;17.70;10.05;;;;;;;-145.76;100.00;65039.31;4908468;28;20077;-75
2022/01/15 10:34:42;;;;;;;18.10;10.48;;;;;;;-145.76;100.00;65039.31;4923954;28;20046;-75
2022/01/15 10:37:21;;;;;;;19.75;11.80;;;;;;;-145.76;100.00;65039.31;4920615;28;20031;-75
2022/01/15 10:39:53;;;;;;;20.27;12.30;;;;;;;-145.76;100.00;65039.31;4899150;28;20104;-76
2022/01/15 10:42:23;;;;;;;27.88;16.42;;;;;;;-145.76;100.00;65039.31;4927417;28;20058;-76
2022/01/15 10:44:56;;;;;;;25.35;15.70;;;;;;;-145.76;100.00;65039.31;4909223;28;20659;-76
2022/01/15 10:47:24;;;;;;;29.58;18.05;;;;;;;-145.76;100.00;65039.31;4926654;28;20035;-74
2022/01/15 10:49:50;;;;;;;32.97;21.52;;;;;;;-145.76;100.00;65039.31;4904914;28;20042;-75
2022/01/15 10:52:19;;;;;;;30.33;18.52;;;;;;;-145.76;100.00;65039.31;4916862;28;20050;-75
2022/01/15 10:55:06;;;;;;;88.68;34.60;;;;;;;-145.76;100.00;65039.31;4925393;28;20023;-75
2022/01/15 10:57:35;;;;;;;48.75;23.58;;;;;;;-145.76;100.00;65039.31;4911803;28;20051;-75
2022/01/15 11:00:06;;;;;;;51.00;24.92;;;;;;;-145.76;100.00;65039.31;4926362;28;20125;-75
2022/01/15 11:02:32;;;;;;;27.45;16.13;;;;;;;-145.76;100.00;65039.31;4910524;28;20055;-76
2022/01/15 11:04:57;;;;;;;19.52;11.38;;;;;;;-145.76;100.00;65039.31;4925821;28;20057;-76
2022/01/15 11:07:23;;;;;;;17.60;11.13;;;;;;;-145.76;100.00;65039.31;4921765;28;20031;-75
2022/01/15 11:09:51;;;;;;;18.98;10.80;;;;;;;-145.76;100.00;65039.31;4916989;28;20133;-75
2022/01/15 11:12:17;;;;;;;24.67;16.10;;;;;;;-145.76;100.00;65039.31;4928552;28;20471;-75
2022/01/15 11:14:43;;;;;;;19.02;11.57;;;;;;;-145.76;100.00;65039.31;4910429;28;20773;-76
2022/01/15 11:17:08;;;;;;;19.92;13.48;;;;;;;-145.76;100.00;65039.31;4922948;28;20023;-76
2022/01/15 11:19:35;;;;;;;18.42;12.13;;;;;;;-145.76;100.00;65039.31;4922061;28;20042;-76
2022/01/15 11:22:01;;;;;;;14.50;10.20;;;;;;;-145.76;100.00;65039.31;4925999;28;20037;-76
2022/01/15 11:24:27;;;;;;;15.95;11.18;;;;;;;-145.76;100.00;65039.31;4909941;28;20031;-77
2022/01/15 11:26:58;;;;;;;17.38;13.15;;;;;;;-145.76;100.00;65039.31;4912085;28;20055;-76
2022/01/15 11:29:25;;;;;;;22.27;14.68;;;;;;;-145.76;100.00;65039.31;4925485;28;20035;-76
2022/01/15 11:31:53;;;;;;;19.95;15.60;;;;;;;-145.76;100.00;65039.31;4922627;28;20054;-76